hwlogo.jpg (8581 bytes)
Home Your Weather Products Services Weather On Your Site Contact
HW Version Logo
Weather Info
Your Weather (Options)
Canadian Weather
International Weather
Enter your " Place, State", US Zip Code or ICAO:  
Forecast Information Radar Information
Moosonee, Ontario, Canada  Lat: 51.27N, Lon: 80.58W
ICAO Used: CYMO
Current Conditions
Updated: 1:00 PM EST THU FEB 22 2018
Sun & Moon Information
Clear
Clear
Temp: -7°C
Humidity: 52%
Wind Speed: W 16 MPH
Barometer: 1035 mb
Dewpoint: -15°C
Heat Index: -7°C
Wind Chill: -15°C
Civil Twilight: 6:51 AM EST Moon Phase:
Waxing Gibbous Moon
Sunrise: 7:25 AM EST
Sunset: 5:46 PM EST
Civil Twilight: 6:20 PM EST
Forecast for Moosonee, ON:
(Forecast based on TAF for )
0700 PM EST WED FEB 21 2018
  
AFTERNOON EVENING
Light
Snow
Fair
ZoneCast:
Dated: 0700 PM EST WED FEB 21 2018
Afternoon...Changing to light snow with winds from the east at 12 mph and gusts up to 23 mph.

Evening...Light snow with winds from the east at 12 mph and gusts up to 23 mph. Becoming fair winds variable in direction at 3 mph.

Original Encoded TAF:
Dated: 0700 PM EST WED FEB 21 2018
2018/02/22 20:21
TAF 
      AMD CYMO 202038Z 2020/2106 07012G22KT P6SM OVC060 
      TEMPO 2020/2021 11/2SM -SN OVC020 
     FM202100 08010G20KT 1SM -SN VV007 
      TEMPO 2021/2103 4SM -SN OVC020 
      BECMG 2023/2101 VRB03KT 
     FM210300 25010KT 2SM -SN OVC015 
      TEMPO 2103/2106 6SM -SN SCT015 OVC040 
      RMK FCST BASED ON AUTO OBS. NXT FCST BY 210000Z